CheckWX is a tool to help pilots better visualize weather data.  It is not intended as a substitute for an official pre-flight weather briefing.

22:04:42 UTC

H71 METAR
Mid-America Industrial Airport
Pryor, Oklahoma, USA
Current

30 mins ago

KH71 192135Z AUTO 32005KT 9SM CLR 22/12 A2975 RMK AO2
Observed
Oct-19 @ 21:35 UTC
Wind
  • 320° at 5 KTS
Visibility
9 SM
Flight Rules
VFR
Cloud Levels
  • Clear skies
Temperature
22°C / 72°F
Dewpoint
12°C / 54°F
Humidity
53%
Altimeter
29.75" Hg
Pressure
1007.42 hPa
Previous

50 mins ago

KH71 192115Z AUTO 01005G11KT 10SM CLR 22/11 A2975 RMK AO2
Observed
Oct-19 @ 21:15 UTC
Wind
  • 010° at 5 KTS
  • Gusting to 11 KTS
Visibility
10 SM
Flight Rules
VFR
Cloud Levels
  • Clear skies
Temperature
22°C / 72°F
Dewpoint
11°C / 52°F
Humidity
50%
Altimeter
29.75" Hg
Pressure
1007.42 hPa
Previous

1 hour ago

KH71 192055Z AUTO 36007KT 9SM CLR 22/11 A2974 RMK AO2
Observed
Oct-19 @ 20:55 UTC
Wind
  • 360° at 7 KTS
Visibility
9 SM
Flight Rules
VFR
Cloud Levels
  • Clear skies
Temperature
22°C / 72°F
Dewpoint
11°C / 52°F
Humidity
50%
Altimeter
29.74" Hg
Pressure
1007.12 hPa